Grand Ruby — 3EIU3 — position and weather

sailwx.info

Track history (hours):
 
Tides and Currents Weather Stations Pressure Air Temp Water Temp Dewpoint Dewpoint Depression Visibility Wind Speed Wind Dir Waves Ship Positions

Grand Ruby

Last reported at 2017-Apr-25 09:28 UTC. Time now 2017-May-27 00:32 UTC.
Position N 34°30' E 129°01'.
Warning: this ship's position is 31 days out of date.

Length 199 m; draft 8 m.

Type: Cargo ship. MMSI: 372399000.

Date/timePositionNaut miles runAvg speedWind from/ knotsBaromVisibWave heightAir tempDewpointWater temp
2017-Apr-25 09:28N 34°30' E 129°01'5 0.9
2017-Apr-25 03:57N 34°28' E 128°55'1 2.1
2017-Apr-25 03:26N 34°28' E 128°54'8 2.3
2017-Apr-24 23:56N 34°36' E 128°54'5 9.1
2017-Apr-24 23:24N 34°40' E 128°52'1 1.5
2017-Apr-24 23:00N 34°40' E 128°53'1 1.6
2017-Apr-24 22:20N 34°39' E 128°53'1 1.6
2017-Apr-24 21:58N 34°39' E 128°54'1 1.3
2017-Apr-24 21:27N 34°38' E 128°54'1 1.4
2017-Apr-24 20:58N 34°38' E 128°55'1 1.4
2017-Apr-24 20:22N 34°37' E 128°56'0 1.1
2017-Apr-24 19:58N 34°37' E 128°56'0 0.9
2017-Apr-24 19:28N 34°37' E 128°57'1 0.8
2017-Apr-24 18:14N 34°36' E 128°57'3 1.3
2017-Apr-24 15:54N 34°33' E 128°56'6 0.3
2017-Apr-23 16:04N 34°32' E 129°04'0 1.0
2017-Apr-23 15:53N 34°32' E 129°03'2 1.3
2017-Apr-23 14:19N 34°31' E 129°02'6 1.0
2017-Apr-23 08:17N 34°27' E 128°55'515.5
2017-Apr-23 07:58N 34°29' E 129°01'12 3.2
2017-Apr-23 04:07N 34°40' E 129°07'0 0.3
2017-Apr-23 03:51N 34°40' E 129°07'  
2017-Apr-17 14:09N 34°33' E 128°54'2 1.3
2017-Apr-17 12:53N 34°32' E 128°55'0 0.8
2017-Apr-17 12:26N 34°32' E 128°55'1 0.9
2017-Apr-17 10:45N 34°31' E 128°55'0 1.3
2017-Apr-17 10:26N 34°30' E 128°55'5 0.9
2017-Apr-17 05:19N 34°34' E 128°59'514.1
2017-Apr-17 04:59N 34°38' E 128°58'5 1.9
2017-Apr-17 02:23N 34°42' E 128°55'1 2.6
2017-Apr-17 01:59N 34°42' E 128°54'1 2.2
2017-Apr-17 01:25N 34°40' E 128°54'1 2.1
2017-Apr-17 00:49N 34°39' E 128°53'1 2.3
2017-Apr-17 00:27N 34°38' E 128°53'1 2.0
2017-Apr-16 23:51N 34°37' E 128°53'1 2.2
2017-Apr-16 23:22N 34°36' E 128°53'1 1.8
2017-Apr-16 23:00N 34°35' E 128°53'1 1.9
2017-Apr-16 22:29N 34°35' E 128°54'22 1.7
2017-Apr-16 09:26N 34°44' E 129°18'1 1.6
2017-Apr-16 08:42N 34°44' E 129°17'1 1.7
2017-Apr-16 08:17N 34°43' E 129°16'1 1.8
2017-Apr-16 07:57N 34°43' E 129°15'3 2.0
2017-Apr-16 06:37N 34°41' E 129°13'1 2.0
2017-Apr-16 06:17N 34°41' E 129°13'1 1.9
2017-Apr-16 05:58N 34°40' E 129°12'2 2.1
2017-Apr-16 05:07N 34°39' E 129°11'0 1.4
2017-Apr-16 04:58N 34°39' E 129°10'  
Track history (hours):
 
Tides and Currents Weather Stations Pressure Air Temp Water Temp Dewpoint Dewpoint Depression Visibility Wind Speed Wind Dir Waves Ship Positions

Grand Ruby

Last reported at 2017-Apr-25 09:28 UTC. Time now 2017-May-27 00:32 UTC.
Position N 34°30' E 129°01'.
Warning: this ship's position is 31 days out of date.

Length 199 m; draft 8 m.

Type: Cargo ship. MMSI: 372399000.

Date/timePositionNaut miles runAvg speedWind from/ knotsBaromVisibWave heightAir tempDewpointWater temp
2017-Apr-25 09:28N 34°30' E 129°01'5 0.9
2017-Apr-25 03:57N 34°28' E 128°55'1 2.1
2017-Apr-25 03:26N 34°28' E 128°54'8 2.3
2017-Apr-24 23:56N 34°36' E 128°54'5 9.1
2017-Apr-24 23:24N 34°40' E 128°52'1 1.5
2017-Apr-24 23:00N 34°40' E 128°53'1 1.6
2017-Apr-24 22:20N 34°39' E 128°53'1 1.6
2017-Apr-24 21:58N 34°39' E 128°54'1 1.3
2017-Apr-24 21:27N 34°38' E 128°54'1 1.4
2017-Apr-24 20:58N 34°38' E 128°55'1 1.4
2017-Apr-24 20:22N 34°37' E 128°56'0 1.1
2017-Apr-24 19:58N 34°37' E 128°56'0 0.9
2017-Apr-24 19:28N 34°37' E 128°57'1 0.8
2017-Apr-24 18:14N 34°36' E 128°57'3 1.3
2017-Apr-24 15:54N 34°33' E 128°56'6 0.3
2017-Apr-23 16:04N 34°32' E 129°04'0 1.0
2017-Apr-23 15:53N 34°32' E 129°03'2 1.3
2017-Apr-23 14:19N 34°31' E 129°02'6 1.0
2017-Apr-23 08:17N 34°27' E 128°55'515.5
2017-Apr-23 07:58N 34°29' E 129°01'12 3.2
2017-Apr-23 04:07N 34°40' E 129°07'0 0.3
2017-Apr-23 03:51N 34°40' E 129°07'  
2017-Apr-17 14:09N 34°33' E 128°54'2 1.3
2017-Apr-17 12:53N 34°32' E 128°55'0 0.8
2017-Apr-17 12:26N 34°32' E 128°55'1 0.9
2017-Apr-17 10:45N 34°31' E 128°55'0 1.3
2017-Apr-17 10:26N 34°30' E 128°55'5 0.9
2017-Apr-17 05:19N 34°34' E 128°59'514.1
2017-Apr-17 04:59N 34°38' E 128°58'5 1.9
2017-Apr-17 02:23N 34°42' E 128°55'1 2.6
2017-Apr-17 01:59N 34°42' E 128°54'1 2.2
2017-Apr-17 01:25N 34°40' E 128°54'1 2.1
2017-Apr-17 00:49N 34°39' E 128°53'1 2.3
2017-Apr-17 00:27N 34°38' E 128°53'1 2.0
2017-Apr-16 23:51N 34°37' E 128°53'1 2.2
2017-Apr-16 23:22N 34°36' E 128°53'1 1.8
2017-Apr-16 23:00N 34°35' E 128°53'1 1.9
2017-Apr-16 22:29N 34°35' E 128°54'22 1.7
2017-Apr-16 09:26N 34°44' E 129°18'1 1.6
2017-Apr-16 08:42N 34°44' E 129°17'1 1.7
2017-Apr-16 08:17N 34°43' E 129°16'1 1.8
2017-Apr-16 07:57N 34°43' E 129°15'3 2.0
2017-Apr-16 06:37N 34°41' E 129°13'1 2.0
2017-Apr-16 06:17N 34°41' E 129°13'1 1.9
2017-Apr-16 05:58N 34°40' E 129°12'2 2.1
2017-Apr-16 05:07N 34°39' E 129°11'0 1.4
2017-Apr-16 04:58N 34°39' E 129°10'  

Dump ship's entire track history